Greenwood Leflore Airport
KGWO : now visible

Airfield :











YOU CAN JOIN US ON...

 
LOGIN :

Register | Disclaimer

   EN    FR    IT 

 









Legend :    VFR   Marginal VFR   IFR   Intensive IFR   Very Intensive IFR
Visi :
Ceiling :
>= 8 km
>= 3000ft
5 to 8 km
1000 to 3000 ft
1500m to 5 km
500 to 1000 ft
800 to 1500m
200 to 500 ft
< 800m
< 200 ft
Symbols :   Thunderstorms  Fog  Heavy snow  Heavy precipitations  Wind > 20 kt






- Airport Elevation : 162 ft


KGWO - Greenwood Leflore

CURRENT METAR :
  • 240453Z AUTO 00000KT 10SM OVC070 17/13 A3009 RMK AO2 SLP188 T01670128

EXPIRED METARs :
  • 240353Z AUTO 00000KT 10SM OVC070 16/12 A3008 RMK AO2 SLP184 T01610122
  • 240253Z AUTO 00000KT 10SM BKN070 16/12 A3008 RMK AO2 SLP183 T01560117 53017
  • 240153Z AUTO 00000KT 10SM CLR 17/09 A3005 RMK AO2 SLP175 T01670094
  • 240053Z AUTO 21003KT 10SM CLR 19/10 A3003 RMK AO2 SLP169 T01890100

TAF KGWO
Valid from the 24 at 00:00 until the 25 at 00:00 UTC


232344Z 2400/2424 19007KT P6SM SKC
FM241400 25005KT P6SM BKN022
FM241700 VRB04KT P6SM BKN027
KZME FIR / North America



MET'MAP, your aeronautical weather chart ! - Copyright ORBIFLY December 2007 - Disclaimer

ORBIFLY MET'MAP TEAM :

Programming & Development : Alexandra Zaïnal
Original concept : Baudouin d'Aumeries
Technical & hardware support : Manuel Goepfert
Assistance : Marc-Olivier Méhu




SOURCES & CREDITS :

   NOAA       Earth
Advisory